Time;durP1;ratioP1;P1;durP2;ratioP2;P2;SDS_P1;SDS_P2;PMS_P1;PMS_P2;Temp;Humidity;BMP_temperature;BMP_pressure;BME280_temperature;BME280_humidity;BME280_pressure;Samples;Min_cycle;Max_cycle;Signal;HPM_P1;HPM_P2
2024/03/07 00:02:23;;;;;;;29.90;18.15;;;;;;;7.02;100.00;137504.84;5069551;28;20103;-70
2024/03/07 00:04:48;;;;;;;25.98;15.85;;;;;;;7.03;100.00;137541.53;5059561;28;20452;-69
2024/03/07 00:07:14;;;;;;;31.48;17.73;;;;;;;7.67;100.00;137757.47;5071703;28;20055;-69
2024/03/07 00:09:39;;;;;;;27.30;16.48;;;;;;;7.66;100.00;137780.75;5070744;28;20028;-70
2024/03/07 00:12:06;;;;;;;24.55;16.98;;;;;;;7.16;100.00;137716.09;5068556;28;20029;-71
2024/03/07 00:14:35;;;;;;;23.77;17.30;;;;;;;7.10;100.00;137741.91;5070370;28;20027;-69
2024/03/07 00:17:00;;;;;;;25.13;17.23;;;;;;;7.74;100.00;137943.91;5069079;28;20089;-70
2024/03/07 00:19:26;;;;;;;28.15;17.50;;;;;;;7.38;100.00;137850.22;5069912;28;20410;-72
2024/03/07 00:21:58;;;;;;;28.38;16.85;;;;;;;7.67;100.00;137967.19;5051564;28;20060;-69
2024/03/07 00:24:24;;;;;;;25.17;17.08;;;;;;;7.28;100.00;137924.16;5070498;28;20067;-69
2024/03/07 00:26:51;;;;;;;27.88;17.02;;;;;;;7.98;100.00;138153.06;5068289;28;20063;-69
2024/03/07 00:29:18;;;;;;;23.45;15.88;;;;;;;6.84;100.00;137899.91;5070517;28;20649;-69
2024/03/07 00:31:46;;;;;;;24.70;16.35;;;;;;;7.22;100.00;137980.41;5070030;28;20438;-69
2024/03/07 00:34:14;;;;;;;23.92;16.30;;;;;;;7.74;100.00;138064.09;5069965;28;20035;-69
2024/03/07 00:36:40;;;;;;;25.52;16.00;;;;;;;6.97;100.00;137917.31;5051747;28;20449;-69
2024/03/07 00:39:08;;;;;;;24.40;16.45;;;;;;;7.01;100.00;137934.25;5060607;28;20032;-69
2024/03/07 00:41:33;;;;;;;24.15;16.05;;;;;;;7.68;100.00;138046.25;5054566;28;20478;-69
2024/03/07 00:43:59;;;;;;;29.40;17.27;;;;;;;7.40;100.00;138077.22;5071743;28;20054;-69
2024/03/07 00:46:24;;;;;;;25.75;16.70;;;;;;;7.35;100.00;138013.09;5069759;28;20166;-70
2024/03/07 00:48:50;;;;;;;26.13;16.38;;;;;;;7.59;100.00;138105.97;5069177;28;20073;-71
2024/03/07 00:51:15;;;;;;;27.73;17.58;;;;;;;7.60;100.00;138124.84;5068832;28;20045;-69
2024/03/07 00:53:41;;;;;;;25.60;16.52;;;;;;;7.57;100.00;138110.19;5052375;28;20071;-70
2024/03/07 00:56:07;;;;;;;26.50;17.13;;;;;;;7.75;100.00;138167.34;5054637;28;20392;-70
2024/03/07 00:58:33;;;;;;;26.95;16.70;;;;;;;7.80;100.00;138209.63;5066362;28;20043;-70
2024/03/07 01:00:58;;;;;;;26.02;17.65;;;;;;;7.72;100.00;138113.19;5069241;28;20021;-70
2024/03/07 01:03:24;;;;;;;25.63;17.60;;;;;;;7.22;100.00;138040.56;5069739;28;20032;-71
2024/03/07 01:05:49;;;;;;;25.52;16.70;;;;;;;7.90;100.00;138247.06;5058755;28;20419;-69
2024/03/07 01:08:15;;;;;;;26.48;16.92;;;;;;;7.52;100.00;138066.75;5056374;28;20403;-70
2024/03/07 01:10:41;;;;;;;26.70;17.20;;;;;;;7.59;100.00;138080.41;5050770;28;20421;-70
2024/03/07 01:13:08;;;;;;;26.65;17.45;;;;;;;7.54;100.00;138057.22;5057904;28;20028;-69
2024/03/07 01:15:34;;;;;;;31.40;18.25;;;;;;;7.85;100.00;138030.78;5069102;28;20032;-71
2024/03/07 01:17:59;;;;;;;27.77;16.70;;;;;;;7.73;100.00;138070.59;5069183;28;20509;-73
2024/03/07 01:20:25;;;;;;;25.17;16.35;;;;;;;7.53;100.00;137967.94;5067253;28;20036;-69
2024/03/07 01:22:51;;;;;;;28.75;17.20;;;;;;;7.49;100.00;137968.91;5068865;28;20036;-70
2024/03/07 01:25:17;;;;;;;27.73;17.20;;;;;;;7.69;100.00;137996.22;5069052;28;20104;-69
2024/03/07 01:27:43;;;;;;;23.02;16.50;;;;;;;7.51;100.00;137945.41;5068465;28;20039;-71
2024/03/07 01:30:10;;;;;;;25.30;16.45;;;;;;;7.51;100.00;137905.91;5049929;28;20029;-71
2024/03/07 01:32:35;;;;;;;28.85;16.75;;;;;;;7.43;100.00;137892.47;5066731;28;20028;-70
2024/03/07 01:35:01;;;;;;;25.75;16.45;;;;;;;6.89;100.00;137753.19;5068814;28;20414;-70
2024/03/07 01:37:26;;;;;;;24.77;16.20;;;;;;;7.01;100.00;137765.66;5067743;28;20045;-69
2024/03/07 01:39:52;;;;;;;24.02;16.90;;;;;;;6.98;100.00;137772.63;5067945;28;20502;-70
2024/03/07 01:42:17;;;;;;;26.63;16.35;;;;;;;7.52;100.00;137834.09;5068168;28;20459;-70
2024/03/07 01:44:43;;;;;;;23.38;16.63;;;;;;;7.82;100.00;137944.53;5068558;28;20029;-69
2024/03/07 01:47:10;;;;;;;25.05;16.98;;;;;;;7.55;100.00;137895.88;5067176;28;20033;-70
2024/03/07 01:49:36;;;;;;;25.52;16.17;;;;;;;7.31;100.00;137834.00;5050244;28;20032;-73
2024/03/07 01:52:04;;;;;;;25.45;16.55;;;;;;;7.73;100.00;137936.44;5068388;28;20045;-69
2024/03/07 01:54:30;;;;;;;28.38;17.35;;;;;;;7.64;100.00;137921.88;5065911;28;20029;-73
2024/03/07 01:56:56;;;;;;;26.67;16.58;;;;;;;7.84;100.00;137956.84;5067060;28;20048;-70
2024/03/07 01:59:24;;;;;;;25.52;16.58;;;;;;;7.11;100.00;137804.13;5068521;28;20044;-70
2024/03/07 02:01:50;;;;;;;22.08;15.52;;;;;;;7.19;100.00;137793.44;5067781;28;20406;-69
2024/03/07 02:04:15;;;;;;;25.42;16.05;;;;;;;7.88;100.00;137957.03;5067907;28;20040;-70
2024/03/07 02:06:41;;;;;;;24.65;16.27;;;;;;;7.39;100.00;137846.00;5067317;28;20384;-70
2024/03/07 02:09:07;;;;;;;27.13;16.90;;;;;;;7.69;100.00;137916.94;5067824;28;20442;-72
2024/03/07 02:11:32;;;;;;;27.42;16.20;;;;;;;7.61;100.00;137870.25;5049781;28;20037;-70
2024/03/07 02:13:58;;;;;;;25.63;16.33;;;;;;;7.65;100.00;137830.94;5066381;28;20495;-70
2024/03/07 02:16:23;;;;;;;27.65;17.35;;;;;;;7.43;100.00;137837.38;5054732;28;20064;-71
2024/03/07 02:18:50;;;;;;;27.10;17.50;;;;;;;8.00;100.00;137950.47;5067782;28;20029;-69
2024/03/07 02:21:15;;;;;;;26.38;17.08;;;;;;;8.00;100.00;137992.78;5068303;28;20520;-70
2024/03/07 02:23:41;;;;;;;25.40;16.02;;;;;;;8.14;100.00;138023.81;5067883;28;20060;-69
2024/03/07 02:26:08;;;;;;;27.40;16.67;;;;;;;8.07;100.00;137999.94;5066799;28;20024;-70
2024/03/07 02:28:34;;;;;;;23.73;16.50;;;;;;;7.47;100.00;137883.84;5049931;28;20491;-70
2024/03/07 02:31:00;;;;;;;26.73;16.42;;;;;;;8.08;100.00;137980.63;5056389;28;20036;-70
2024/03/07 02:33:25;;;;;;;26.52;17.23;;;;;;;7.56;100.00;137848.47;5066664;28;20029;-70
2024/03/07 02:35:51;;;;;;;28.20;16.92;;;;;;;7.06;100.00;137722.41;5067689;28;20498;-70
2024/03/07 02:38:17;;;;;;;23.58;16.15;;;;;;;7.13;100.00;137739.78;5067868;28;20024;-70
2024/03/07 02:40:43;;;;;;;26.60;16.63;;;;;;;7.25;100.00;137751.09;5067622;28;20090;-70
2024/03/07 02:43:18;;;;;;;26.30;17.88;;;;;;;7.60;100.00;137815.44;5068267;28;20036;-70
2024/03/07 02:45:43;;;;;;;25.05;17.05;;;;;;;6.69;100.00;137579.19;5067873;28;20029;-70
2024/03/07 02:48:09;;;;;;;31.15;17.75;;;;;;;7.54;100.00;137779.91;5067832;28;20055;-70
2024/03/07 02:50:39;;;;;;;24.58;16.20;;;;;;;7.26;100.00;137735.50;5067532;28;20021;-71
2024/03/07 02:53:04;;;;;;;26.90;16.88;;;;;;;7.26;100.00;137695.81;5066326;28;20414;-70
2024/03/07 02:55:33;;;;;;;25.63;17.02;;;;;;;7.62;100.00;137755.00;5068143;28;20040;-70
2024/03/07 02:57:59;;;;;;;26.58;17.05;;;;;;;6.85;100.00;137612.25;5066484;28;20148;-69
2024/03/07 03:00:29;;;;;;;27.73;16.75;;;;;;;7.80;100.00;137842.72;5053945;28;20547;-70
2024/03/07 03:02:56;;;;;;;25.65;17.15;;;;;;;7.84;100.00;137855.66;5066808;28;20025;-70
2024/03/07 03:05:22;;;;;;;25.95;17.00;;;;;;;7.18;100.00;137688.88;5067449;28;20050;-70
2024/03/07 03:07:54;;;;;;;27.45;17.08;;;;;;;7.25;100.00;137680.69;5067534;28;20578;-70
2024/03/07 03:10:21;;;;;;;25.25;16.77;;;;;;;7.62;100.00;137770.31;5066654;28;20040;-70
2024/03/07 03:12:47;;;;;;;29.20;17.77;;;;;;;6.76;100.00;137539.19;5066651;28;20051;-70
2024/03/07 03:15:14;;;;;;;25.17;17.52;;;;;;;7.07;100.00;137613.50;5069580;28;20486;-70
2024/03/07 03:17:40;;;;;;;25.98;16.77;;;;;;;7.56;100.00;137738.53;5071326;28;20033;-69
2024/03/07 03:20:18;;;;;;;25.83;17.65;;;;;;;7.53;100.00;137722.50;5052323;28;20066;-69
2024/03/07 03:22:44;;;;;;;26.23;17.80;;;;;;;6.91;100.00;137585.28;5052501;28;20028;-69
2024/03/07 03:25:09;;;;;;;25.90;17.70;;;;;;;7.21;100.00;137640.75;5071167;28;20058;-69
2024/03/07 03:27:34;;;;;;;28.27;17.65;;;;;;;7.76;100.00;137736.25;5070407;28;20028;-69
2024/03/07 03:30:00;;;;;;;26.55;16.98;;;;;;;7.71;100.00;137750.22;5070957;28;20426;-69
2024/03/07 03:32:25;;;;;;;25.45;16.75;;;;;;;7.15;100.00;137641.09;5064070;28;20033;-70
2024/03/07 03:34:52;;;;;;;29.92;17.50;;;;;;;7.72;100.00;137721.88;5070931;28;20051;-70
2024/03/07 03:37:17;;;;;;;25.13;17.23;;;;;;;7.76;100.00;137773.19;5071425;28;20036;-70
2024/03/07 03:39:43;;;;;;;26.40;17.02;;;;;;;7.49;100.00;137697.91;5059613;28;20418;-70
2024/03/07 03:42:09;;;;;;;26.70;17.45;;;;;;;7.44;100.00;137568.78;5069926;28;20055;-70
2024/03/07 03:44:35;;;;;;;26.20;16.95;;;;;;;6.87;100.00;137524.94;5070986;28;20115;-73
2024/03/07 03:47:02;;;;;;;27.50;18.30;;;;;;;7.02;100.00;137550.84;5070971;28;20173;-69
2024/03/07 03:49:27;;;;;;;24.98;16.38;;;;;;;6.99;100.00;137457.06;5052306;28;20560;-69
2024/03/07 03:51:53;;;;;;;27.45;17.48;;;;;;;7.48;100.00;137622.88;5070400;28;20078;-70
2024/03/07 03:54:18;;;;;;;29.98;18.15;;;;;;;7.23;100.00;137571.28;5070622;28;20127;-71
2024/03/07 03:56:43;;;;;;;27.13;17.67;;;;;;;7.64;100.00;137626.66;5070944;28;21755;-69
2024/03/07 03:59:09;;;;;;;29.88;17.48;;;;;;;7.75;100.00;137731.38;5069514;28;20027;-70
2024/03/07 04:01:35;;;;;;;24.15;17.38;;;;;;;7.08;100.00;137535.44;5052053;28;20141;-69
2024/03/07 04:04:01;;;;;;;25.73;17.25;;;;;;;7.43;100.00;137649.63;5068931;28;20036;-70
2024/03/07 04:06:27;;;;;;;27.55;17.17;;;;;;;7.56;100.00;137619.53;5070616;28;20028;-69
2024/03/07 04:08:55;;;;;;;27.33;17.17;;;;;;;6.91;100.00;137527.97;5051910;28;20036;-70
2024/03/07 04:11:20;;;;;;;29.35;16.70;;;;;;;7.51;100.00;137663.03;5052267;28;20032;-70
2024/03/07 04:13:46;;;;;;;23.80;16.40;;;;;;;7.26;100.00;137633.31;5057886;28;20028;-70
2024/03/07 04:16:11;;;;;;;22.58;16.38;;;;;;;7.65;100.00;137718.44;5059358;28;20036;-69
2024/03/07 04:18:37;;;;;;;26.40;16.17;;;;;;;7.68;100.00;137654.97;5061810;28;20116;-70
2024/03/07 04:21:02;;;;;;;25.88;16.85;;;;;;;8.01;100.00;137805.75;5069953;28;20063;-70
2024/03/07 04:23:27;;;;;;;28.13;16.67;;;;;;;7.22;100.00;137624.03;5069277;28;20064;-70
2024/03/07 04:25:53;;;;;;;25.10;16.05;;;;;;;7.11;100.00;137584.41;5051251;28;20121;-72
2024/03/07 04:28:20;;;;;;;26.83;16.27;;;;;;;7.59;100.00;137700.59;5069585;28;20075;-70
2024/03/07 04:30:45;;;;;;;26.88;17.52;;;;;;;7.31;100.00;137639.78;5069059;28;20086;-71
2024/03/07 04:33:11;;;;;;;22.88;15.15;;;;;;;8.49;100.00;137919.53;5066047;28;20567;-70
2024/03/07 04:35:36;;;;;;;29.15;16.83;;;;;;;7.80;100.00;137704.59;5070029;28;20031;-70
2024/03/07 04:38:02;;;;;;;24.08;15.90;;;;;;;7.17;100.00;137581.84;5070886;28;20063;-69
2024/03/07 04:40:28;;;;;;;28.58;17.08;;;;;;;7.03;100.00;137531.31;5068823;28;20036;-70
2024/03/07 04:42:53;;;;;;;31.77;17.58;;;;;;;7.37;100.00;137557.69;5052055;28;20410;-71
2024/03/07 04:45:20;;;;;;;29.35;17.00;;;;;;;7.48;100.00;137579.41;5052156;28;20036;-69
2024/03/07 04:47:49;;;;;;;28.23;16.17;;;;;;;7.48;100.00;137589.63;5049792;28;20044;-73
2024/03/07 04:50:17;;;;;;;27.08;17.42;;;;;;;7.63;100.00;137638.28;5068312;28;20036;-69
2024/03/07 04:52:43;;;;;;;27.38;17.27;;;;;;;7.35;100.00;137572.38;5066085;28;20115;-70
2024/03/07 04:55:12;;;;;;;27.50;17.27;;;;;;;7.40;100.00;137573.69;5068470;28;20033;-69
2024/03/07 04:57:40;;;;;;;26.23;16.50;;;;;;;7.14;100.00;137521.22;5067418;28;20054;-76
2024/03/07 05:00:18;;;;;;;28.50;16.98;;;;;;;6.91;100.00;137455.03;5068037;28;20071;-73
2024/03/07 05:02:46;;;;;;;23.38;15.93;;;;;;;7.44;100.00;137568.78;5066120;28;20040;-68
2024/03/07 05:05:12;;;;;;;27.00;16.27;;;;;;;7.19;100.00;137467.50;5066839;28;20032;-68
2024/03/07 05:07:39;;;;;;;22.58;15.65;;;;;;;7.34;100.00;137522.66;5067882;28;20053;-69
2024/03/07 05:10:07;;;;;;;24.67;15.88;;;;;;;7.10;100.00;137471.09;5049883;28;20514;-71
2024/03/07 05:12:33;;;;;;;27.33;16.48;;;;;;;7.27;100.00;137506.44;5067253;28;20490;-69
2024/03/07 05:14:58;;;;;;;26.00;16.38;;;;;;;6.64;100.00;137368.50;5067810;28;20032;-73
2024/03/07 05:17:24;;;;;;;24.35;16.63;;;;;;;7.35;100.00;137531.47;5049790;28;20033;-69
2024/03/07 05:19:50;;;;;;;27.40;16.85;;;;;;;7.23;100.00;137450.06;5068024;28;20479;-70
2024/03/07 05:22:16;;;;;;;25.25;16.98;;;;;;;7.23;100.00;137509.97;5067922;28;20509;-70
2024/03/07 05:24:44;;;;;;;26.35;17.30;;;;;;;6.90;100.00;137358.25;5048818;28;20024;-73
2024/03/07 05:27:12;;;;;;;27.65;17.20;;;;;;;7.17;100.00;137468.00;5049214;28;20036;-71
2024/03/07 05:29:39;;;;;;;28.73;18.58;;;;;;;6.85;100.00;137411.94;5066396;28;20035;-72
2024/03/07 05:32:26;;;;;;;34.72;18.60;;;;;;;6.98;100.00;137457.28;5067541;28;20035;-71
2024/03/07 05:34:55;;;;;;;29.70;18.08;;;;;;;7.05;100.00;137454.47;5065521;28;20033;-71
2024/03/07 05:37:21;;;;;;;25.25;16.95;;;;;;;7.41;100.00;137517.19;5066513;28;20028;-70
2024/03/07 05:39:48;;;;;;;26.92;16.88;;;;;;;7.48;100.00;137491.13;5069348;28;20029;-70
2024/03/07 05:42:14;;;;;;;24.63;17.02;;;;;;;7.41;100.00;137473.75;5065283;28;20352;-72
2024/03/07 05:44:43;;;;;;;27.60;16.90;;;;;;;7.48;100.00;137553.84;5048990;28;20028;-70
2024/03/07 05:47:09;;;;;;;24.90;17.10;;;;;;;7.59;100.00;137584.38;5066761;28;20029;-70
2024/03/07 05:49:36;;;;;;;27.38;17.48;;;;;;;7.47;100.00;137472.28;5067375;28;20085;-71
2024/03/07 05:52:02;;;;;;;24.63;16.90;;;;;;;7.65;100.00;137594.31;5066173;28;20499;-72
2024/03/07 05:54:29;;;;;;;29.33;18.88;;;;;;;7.51;100.00;137586.34;5068841;28;20031;-74
2024/03/07 05:56:55;;;;;;;26.92;17.75;;;;;;;7.68;100.00;137601.28;5066874;28;20045;-70
2024/03/07 05:59:21;;;;;;;28.80;17.65;;;;;;;7.32;100.00;137519.41;5067080;28;20438;-71
2024/03/07 06:01:47;;;;;;;26.75;17.80;;;;;;;7.60;100.00;137575.09;5048734;28;20418;-71
2024/03/07 06:04:12;;;;;;;27.50;17.13;;;;;;;7.29;100.00;137498.28;5068179;28;20580;-70
2024/03/07 06:06:38;;;;;;;27.20;17.08;;;;;;;6.83;100.00;137381.78;5067930;28;20021;-70
2024/03/07 06:09:08;;;;;;;25.75;16.63;;;;;;;7.20;100.00;137459.63;5060064;28;20021;-71
2024/03/07 06:11:38;;;;;;;29.75;17.02;;;;;;;6.88;100.00;137342.25;5050675;28;20033;-70
2024/03/07 06:14:05;;;;;;;28.73;18.48;;;;;;;7.52;100.00;137517.09;5067144;28;20044;-71
2024/03/07 06:16:38;;;;;;;28.23;19.38;;;;;;;7.18;100.00;137446.16;5065676;28;20043;-70
2024/03/07 06:19:07;;;;;;;30.23;17.02;;;;;;;7.64;100.00;137555.06;5067850;28;20047;-70
2024/03/07 06:21:33;;;;;;;27.63;16.55;;;;;;;7.04;100.00;137407.31;5072082;28;20040;-71
2024/03/07 06:23:59;;;;;;;25.50;16.63;;;;;;;7.51;100.00;137469.91;5068613;28;20024;-74
2024/03/07 06:26:46;;;;;;;29.02;16.20;;;;;;;6.94;100.00;137371.44;5067941;28;20166;-70
2024/03/07 06:29:13;;;;;;;28.33;17.90;;;;;;;6.80;100.00;137347.91;5067689;28;20028;-70
2024/03/07 06:31:38;;;;;;;30.67;18.73;;;;;;;7.14;100.00;137390.94;5067886;28;20081;-71
2024/03/07 06:34:04;;;;;;;34.20;18.60;;;;;;;7.55;100.00;137485.66;5068300;28;20028;-71
2024/03/07 06:36:30;;;;;;;28.88;18.10;;;;;;;7.66;100.00;137530.16;5068633;28;20182;-70
2024/03/07 06:38:55;;;;;;;29.25;17.17;;;;;;;7.61;100.00;137399.81;5068625;28;20035;-70
2024/03/07 06:41:21;;;;;;;27.85;17.70;;;;;;;7.06;100.00;137364.78;5053393;28;20032;-70
2024/03/07 06:43:49;;;;;;;26.85;16.50;;;;;;;7.55;100.00;137490.75;5069358;28;20040;-70
2024/03/07 06:46:16;;;;;;;26.23;16.75;;;;;;;6.72;100.00;137302.75;5066270;28;20536;-70
2024/03/07 06:48:42;;;;;;;25.10;16.08;;;;;;;6.96;100.00;137356.78;5071714;28;20039;-70
2024/03/07 06:51:07;;;;;;;24.63;15.85;;;;;;;7.03;100.00;137364.16;5071590;28;20048;-70
2024/03/07 06:53:33;;;;;;;28.67;16.80;;;;;;;7.36;100.00;137421.31;5053047;28;20042;-70
2024/03/07 06:55:59;;;;;;;26.02;16.98;;;;;;;7.45;100.00;137456.03;5049317;28;20041;-70
2024/03/07 06:58:26;;;;;;;32.20;18.05;;;;;;;7.24;100.00;137408.94;5067092;28;20472;-70
2024/03/07 07:00:53;;;;;;;29.10;16.48;;;;;;;7.65;100.00;137516.44;5051449;28;20037;-72
2024/03/07 07:03:19;;;;;;;27.42;16.60;;;;;;;7.56;100.00;137498.22;5051811;28;20033;-70
2024/03/07 07:05:45;;;;;;;28.27;17.92;;;;;;;7.63;100.00;137502.75;5052380;28;20112;-70
2024/03/07 07:08:12;;;;;;;27.17;16.38;;;;;;;7.81;100.00;137557.16;5050105;28;20166;-71
2024/03/07 07:10:40;;;;;;;26.80;16.00;;;;;;;7.71;100.00;137528.91;5051311;28;20090;-71
2024/03/07 07:13:05;;;;;;;25.40;16.95;;;;;;;7.66;100.00;137518.78;5051405;28;20040;-70
2024/03/07 07:15:31;;;;;;;25.58;17.13;;;;;;;7.52;100.00;137482.47;5051920;28;20110;-70
2024/03/07 07:17:56;;;;;;;26.90;17.63;;;;;;;7.61;100.00;137505.81;5049646;28;20515;-71
2024/03/07 07:20:23;;;;;;;29.52;18.52;;;;;;;7.31;100.00;137435.34;5067153;28;20036;-70
2024/03/07 07:22:49;;;;;;;30.58;18.40;;;;;;;7.54;100.00;137469.19;5049964;28;20032;-71
2024/03/07 07:25:15;;;;;;;31.35;19.63;;;;;;;7.70;100.00;137507.56;5049477;28;20415;-71
2024/03/07 07:27:49;;;;;;;29.80;18.55;;;;;;;7.74;100.00;137509.13;5051429;28;20037;-70
2024/03/07 07:30:17;;;;;;;28.45;18.35;;;;;;;7.80;100.00;137528.13;5050928;28;20116;-70
2024/03/07 07:32:43;;;;;;;29.30;18.48;;;;;;;7.96;100.00;137575.34;5049084;28;20033;-70
2024/03/07 07:35:12;;;;;;;30.52;19.23;;;;;;;8.16;100.00;137621.53;5050952;28;20036;-70
2024/03/07 07:37:41;;;;;;;26.52;17.15;;;;;;;7.96;100.00;137597.19;5050737;28;20029;-70
2024/03/07 07:40:08;;;;;;;27.85;18.25;;;;;;;7.60;100.00;137499.78;5050261;28;20041;-70
2024/03/07 07:42:38;;;;;;;29.75;18.73;;;;;;;7.51;100.00;137481.53;5049528;28;20025;-70
2024/03/07 07:45:10;;;;;;;25.55;18.10;;;;;;;8.14;100.00;137615.78;5051153;28;20044;-71
2024/03/07 07:47:40;;;;;;;28.58;18.33;;;;;;;7.11;100.00;137408.13;5051002;28;20089;-69
2024/03/07 07:50:12;;;;;;;24.98;18.30;;;;;;;8.34;100.00;137670.88;5049745;28;20173;-69
2024/03/07 07:52:56;;;;;;;28.67;17.70;;;;;;;8.13;100.00;137616.00;5050513;28;20064;-71
2024/03/07 07:55:23;;;;;;;27.83;17.60;;;;;;;7.97;100.00;137585.31;5053024;28;20105;-70
2024/03/07 07:57:53;;;;;;;25.63;17.05;;;;;;;8.18;100.00;137610.81;5063221;28;20036;-70
2024/03/07 08:00:22;;;;;;;28.08;17.48;;;;;;;7.60;100.00;137479.34;5069819;28;21691;-70
2024/03/07 08:03:00;;;;;;;29.48;18.60;;;;;;;8.35;100.00;137641.34;5069395;28;20100;-70
2024/03/07 08:05:31;;;;;;;27.30;17.60;;;;;;;8.08;100.00;137574.88;5069437;28;20033;-70
2024/03/07 08:07:59;;;;;;;20.80;13.23;;;;;;;7.81;100.00;137520.19;5069219;28;20035;-72
2024/03/07 08:10:28;;;;;;;42.15;22.85;;;;;;;8.04;100.00;137568.25;5070616;28;20553;-70
2024/03/07 08:12:54;;;;;;;26.02;18.63;;;;;;;8.31;100.00;137648.63;5069056;28;20040;-72
2024/03/07 08:15:19;;;;;;;31.13;19.30;;;;;;;8.08;100.00;137540.50;5068519;28;20093;-71
2024/03/07 08:17:46;;;;;;;28.38;18.83;;;;;;;7.73;100.00;137551.44;5058964;28;20033;-71
2024/03/07 08:20:20;;;;;;;30.17;18.80;;;;;;;8.09;100.00;137618.16;5069931;28;20032;-70
2024/03/07 08:22:46;;;;;;;29.23;19.33;;;;;;;8.19;100.00;137646.41;5070285;28;20040;-70
2024/03/07 08:25:13;;;;;;;28.67;18.52;;;;;;;8.18;100.00;137571.28;5068478;28;20383;-70
2024/03/07 08:27:41;;;;;;;27.17;18.25;;;;;;;8.57;100.00;137690.81;5069507;28;20028;-71
2024/03/07 08:30:12;;;;;;;33.70;18.60;;;;;;;8.69;100.00;137804.50;5068449;28;20119;-70
2024/03/07 08:32:39;;;;;;;25.92;17.35;;;;;;;8.56;100.00;137792.31;5068428;28;20059;-70
2024/03/07 08:35:09;;;;;;;28.77;17.33;;;;;;;7.95;100.00;137659.97;5070091;28;20039;-70
2024/03/07 08:37:45;;;;;;;27.23;18.00;;;;;;;8.13;100.00;137708.13;5068719;28;20040;-70
2024/03/07 08:40:19;;;;;;;24.67;15.48;;;;;;;7.89;100.00;137681.91;5064900;28;20083;-70
2024/03/07 08:42:45;;;;;;;26.55;16.58;;;;;;;8.81;100.00;137945.00;5069813;28;20032;-71
2024/03/07 08:45:11;;;;;;;24.95;15.95;;;;;;;8.62;100.00;137932.88;5051263;28;20079;-74
2024/03/07 08:47:37;;;;;;;25.70;16.33;;;;;;;8.01;100.00;137822.25;5070243;28;20475;-71
2024/03/07 08:50:08;;;;;;;28.27;17.35;;;;;;;8.25;100.00;137888.13;5068946;28;20530;-70
2024/03/07 08:52:36;;;;;;;28.92;17.65;;;;;;;8.25;100.00;137915.13;5068343;28;20463;-72
2024/03/07 08:55:02;;;;;;;23.35;17.00;;;;;;;8.59;100.00;137977.16;5067819;28;20028;-75
2024/03/07 08:57:28;;;;;;;28.30;18.60;;;;;;;8.26;100.00;137941.63;5069020;28;20036;-71
2024/03/07 08:59:53;;;;;;;27.73;19.60;;;;;;;8.87;100.00;138093.53;5069266;28;20064;-71
2024/03/07 09:02:19;;;;;;;28.73;18.70;;;;;;;8.53;100.00;137999.13;5068119;28;20502;-70
2024/03/07 09:04:44;;;;;;;28.38;17.77;;;;;;;8.10;100.00;137885.47;5066609;28;20068;-70
2024/03/07 09:07:10;;;;;;;25.90;16.42;;;;;;;8.44;100.00;137987.31;5050095;28;20067;-71
2024/03/07 09:09:35;;;;;;;36.15;21.25;;;;;;;8.35;100.00;137912.69;5072432;28;20028;-70
2024/03/07 09:12:01;;;;;;;30.88;19.42;;;;;;;8.04;100.00;137897.16;5076992;28;20039;-70
2024/03/07 09:14:30;;;;;;;32.55;21.45;;;;;;;8.35;100.00;137992.06;5069204;28;20029;-70
2024/03/07 09:16:56;;;;;;;35.85;21.40;;;;;;;7.55;100.00;137808.94;5067157;28;20025;-70
2024/03/07 09:19:24;;;;;;;33.95;23.13;;;;;;;8.56;100.00;138044.47;5069060;28;20020;-70
2024/03/07 09:21:51;;;;;;;60.38;43.15;;;;;;;8.62;100.00;138059.75;5068032;28;20047;-70
2024/03/07 09:24:16;;;;;;;50.65;39.95;;;;;;;8.72;100.00;138084.13;5068838;28;20130;-69
2024/03/07 09:26:42;;;;;;;36.53;25.77;;;;;;;8.92;100.00;138141.00;5069032;28;20124;-70
2024/03/07 09:29:07;;;;;;;42.70;27.90;;;;;;;8.88;100.00;138113.75;5050592;28;20514;-70
2024/03/07 09:31:33;;;;;;;33.33;20.88;;;;;;;8.28;100.00;137940.03;5068725;28;20371;-70
2024/03/07 09:33:59;;;;;;;24.25;16.90;;;;;;;7.84;100.00;137768.69;5068368;28;20035;-71
2024/03/07 09:36:28;;;;;;;42.55;25.20;;;;;;;8.55;100.00;137914.13;5068139;28;20036;-73
2024/03/07 09:38:53;;;;;;;37.40;22.83;;;;;;;7.82;100.00;137727.13;5063671;28;20041;-70
2024/03/07 09:41:20;;;;;;;36.03;22.73;;;;;;;8.34;100.00;137800.31;5061409;28;20028;-70
2024/03/07 09:43:49;;;;;;;43.28;28.73;;;;;;;7.72;100.00;137625.88;5067296;28;20119;-71
2024/03/07 09:46:15;;;;;;;31.10;20.50;;;;;;;7.88;100.00;137639.81;5067365;28;20076;-71
2024/03/07 09:48:40;;;;;;;36.15;23.55;;;;;;;7.74;100.00;137593.53;5069169;28;20021;-70
2024/03/07 09:51:10;;;;;;;45.30;27.20;;;;;;;7.79;100.00;137564.16;5060867;28;20028;-75
2024/03/07 09:53:37;;;;;;;72.90;39.97;;;;;;;8.32;100.00;137673.94;5068585;28;20064;-71
2024/03/07 09:56:06;;;;;;;69.03;37.05;;;;;;;7.78;100.00;137526.06;5067524;28;20543;-70
2024/03/07 09:58:33;;;;;;;80.10;46.17;;;;;;;8.25;100.00;137628.44;5068356;28;20032;-69
2024/03/07 10:01:01;;;;;;;42.42;25.88;;;;;;;7.97;100.00;137469.00;5068360;28;20025;-70
2024/03/07 10:03:29;;;;;;;28.13;20.05;;;;;;;7.55;100.00;137398.72;5068233;28;20047;-70
2024/03/07 10:05:55;;;;;;;50.28;30.08;;;;;;;8.06;100.00;137461.69;5068211;28;20084;-69
2024/03/07 10:08:23;;;;;;;41.03;26.60;;;;;;;7.37;100.00;137300.97;5066953;28;20445;-69
2024/03/07 10:10:50;;;;;;;34.60;22.25;;;;;;;7.55;100.00;137365.50;5068535;28;20024;-70
2024/03/07 10:13:17;;;;;;;33.30;21.05;;;;;;;7.45;100.00;137323.13;5068592;28;20039;-72
2024/03/07 10:15:43;;;;;;;33.30;20.88;;;;;;;7.23;100.00;137299.31;5068667;28;20166;-69
2024/03/07 10:18:13;;;;;;;39.55;23.05;;;;;;;8.67;100.00;137548.84;5066221;28;20131;-70
2024/03/07 10:20:39;;;;;;;40.65;27.40;;;;;;;8.06;100.00;137524.22;5066267;28;20048;-69
2024/03/07 10:23:07;;;;;;;41.45;27.63;;;;;;;7.87;100.00;137462.44;5050116;28;20119;-71
2024/03/07 10:25:33;;;;;;;37.65;26.23;;;;;;;7.79;100.00;137456.72;5051823;28;20032;-70
2024/03/07 10:28:00;;;;;;;36.47;24.02;;;;;;;7.92;100.00;137438.19;5069338;28;20556;-72
2024/03/07 10:30:28;;;;;;;30.90;22.27;;;;;;;7.97;100.00;137449.72;5070993;28;20093;-69
2024/03/07 10:32:59;;;;;;;35.35;22.08;;;;;;;8.07;100.00;137559.81;5069095;28;20499;-70
2024/03/07 10:35:24;;;;;;;35.53;23.55;;;;;;;8.27;100.00;137595.84;5069126;28;20517;-71
2024/03/07 10:37:53;;;;;;;38.92;25.90;;;;;;;8.15;100.00;137572.00;5069570;28;20037;-72
2024/03/07 10:40:21;;;;;;;42.58;25.35;;;;;;;8.28;100.00;137580.22;5069596;28;20037;-71
2024/03/07 10:42:57;;;;;;;39.65;23.80;;;;;;;7.99;100.00;137572.00;5068528;28;21690;-71
2024/03/07 10:45:23;;;;;;;38.95;24.63;;;;;;;7.41;100.00;137432.84;5068337;28;20060;-70
2024/03/07 10:47:56;;;;;;;38.70;24.77;;;;;;;8.16;100.00;137601.06;5051448;28;20548;-71
2024/03/07 10:50:42;;;;;;;34.15;21.67;;;;;;;8.03;100.00;137565.91;5050823;28;20406;-72
2024/03/07 10:53:32;;;;;;;33.50;21.58;;;;;;;7.50;100.00;137474.13;5068720;28;20024;-70
2024/03/07 10:56:16;;;;;;;33.53;21.75;;;;;;;8.19;100.00;137660.59;5068167;28;20048;-70
2024/03/07 10:59:02;;;;;;;32.50;22.13;;;;;;;8.36;100.00;137637.09;5057538;28;20036;-73
2024/03/07 11:01:34;;;;;;;35.25;22.10;;;;;;;7.77;100.00;137506.97;5069683;28;20028;-72
2024/03/07 11:04:00;;;;;;;34.53;21.83;;;;;;;8.32;100.00;137650.91;5071328;28;20035;-70
2024/03/07 11:06:26;;;;;;;33.03;20.92;;;;;;;8.46;100.00;137603.91;5070878;28;20033;-70
2024/03/07 11:08:52;;;;;;;32.05;22.08;;;;;;;8.21;100.00;137666.41;5068895;28;20504;-70
2024/03/07 11:11:18;;;;;;;31.05;21.17;;;;;;;7.98;100.00;137597.88;5071174;28;20131;-71